CST,Max TemperatureF,Mean TemperatureF,Min TemperatureF,Max Dew PointF,MeanDew PointF,Min DewpointF,Max Humidity, Mean Humidity, Min Humidity, Max Sea Level PressureIn, Mean Sea Level PressureIn, Min Sea Level PressureIn, Max VisibilityMiles, Mean VisibilityMiles, Min VisibilityMiles, Max Wind SpeedMPH, Mean Wind SpeedMPH, Max Gust SpeedMPH,PrecipitationIn, CloudCover, Events, WindDirDegrees
2012-12-1,63,48,33,50,43,32,100,82,64,30.15,30.08,29.96,10,6,2,24,15,29,0.00,2,,165
2012-12-2,67,59,51,57,53,48,100,84,67,30.07,30.02,29.94,10,7,0,22,10,26,T,5,Fog-Rain,184
2012-12-3,73,65,57,61,58,55,100,79,57,30.05,29.98,29.87,10,6,0,35,19,46,0.00,4,Fog,183
2012-12-4,62,50,37,55,46,34,93,77,61,30.28,30.10,29.93,10,8,4,20,10,23,0.26,5,Rain,315
2012-12-5,46,39,32,34,31,28,89,74,58,30.43,30.33,30.21,10,10,10,15,8,21,0.00,0,,57
2012-12-6,50,40,30,40,35,28,92,79,66,30.20,30.07,29.97,10,10,7,12,7,16,0.00,2,,139
2012-12-7,47,45,43,45,44,41,100,92,83,29.97,29.91,29.84,5,2,0,16,6,21,0.32,8,Fog-Rain,74
2012-12-8,46,43,39,45,40,36,100,88,76,30.06,29.96,29.85,10,5,0,16,7,21,0.01,7,Fog-Rain,4
2012-12-9,50,45,39,49,42,36,100,93,85,30.04,29.85,29.75,10,4,0,22,13,26,0.30,8,Fog-Rain,54
2012-12-10,40,34,28,34,26,24,92,85,78,30.03,29.90,29.80,10,8,5,24,16,29,0.00,8,,288
2012-12-11,35,27,19,25,22,17,92,76,59,30.24,30.12,30.00,10,10,10,20,9,25,0.00,1,,214
2012-12-12,44,32,20,30,26,18,92,75,58,30.38,30.32,30.24,10,10,9,13,8,,0.00,0,,169
2012-12-13,46,38,29,32,28,24,85,72,58,30.36,30.29,30.18,10,10,9,22,12,26,0.00,0,,178
2012-12-14,51,40,29,38,32,25,85,72,59,30.25,30.17,30.06,10,10,10,12,7,13,0.00,0,,163
2012-12-15,53,46,38,50,44,34,96,88,79,30.04,29.77,29.63,10,8,2,30,15,36,0.24,8,Rain,166
2012-12-16,51,45,39,49,42,35,93,87,80,29.76,29.71,29.66,10,8,5,17,9,21,0.00,8,,268
2012-12-17,39,37,35,36,35,34,100,93,85,29.78,29.72,29.65,7,4,2,12,6,14,0.05,8,Rain,330
2012-12-18,48,41,34,40,35,31,92,84,76,29.88,29.75,29.62,10,7,3,31,14,36,0.00,4,,220
2012-12-19,43,39,35,40,35,31,93,88,82,30.08,29.92,29.67,9,6,3,23,11,29,0.14,8,Rain-Thunderstorm,73
2012-12-20,54,40,25,51,37,24,100,88,76,29.68,29.38,29.15,10,5,0,46,28,56,0.71,8,Fog-Rain-Snow-Thunderstorm,213
2012-12-21,27,21,15,23,18,12,100,84,68,30.27,29.99,29.69,10,8,0,40,23,49,0.03,3,Fog-Snow,288
2012-12-22,33,22,11,26,18,9,92,82,72,30.30,30.18,29.96,10,10,8,13,7,16,0.00,0,,195
2012-12-23,38,29,20,31,26,21,100,88,75,30.01,29.96,29.91,10,7,2,14,7,18,0.00,0,,42
2012-12-24,33,30,27,29,27,24,92,85,78,30.10,29.93,29.81,8,5,2,20,12,22,0.00,6,,322
2012-12-25,35,31,27,27,25,24,92,78,64,30.27,30.17,30.06,10,9,5,23,14,29,0.00,7,,21
2012-12-26,33,31,28,28,25,21,85,77,69,30.10,29.97,29.88,10,8,2,33,21,43,T,8,Snow,2
2012-12-27,31,29,27,24,23,22,85,77,69,30.21,30.16,30.12,10,10,10,15,7,18,0.00,8,,153
2012-12-28,32,31,29,29,28,24,92,89,85,30.13,29.98,29.85,10,7,3,13,7,16,0.00,8,,128
2012-12-29,31,24,16,30,24,13,100,85,69,30.31,30.01,29.84,10,6,1,25,16,33,T,8,Snow,301
2012-12-30,36,25,13,26,20,11,96,83,69,30.42,30.34,30.22,10,8,5,17,11,22,0.00,0,,204
2012-12-31,35,29,23,31,27,19,92,78,64,30.19,30.12,30.07,10,6,0,18,12,23,0.09,7,Fog-Snow,238